Time;durP1;ratioP1;P1;durP2;ratioP2;P2;SDS_P1;SDS_P2;PMS_P1;PMS_P2;Temp;Humidity;BMP_temperature;BMP_pressure;BME280_temperature;BME280_humidity;BME280_pressure;Samples;Min_cycle;Max_cycle;Signal;HPM_P1;HPM_P2
2023/05/25 00:00:38;;;;;;;8.90;6.72;;;;;;;18.58;50.92;93721.03;4970116;28;20051;-91
2023/05/25 00:03:03;;;;;;;11.77;7.07;;;;;;;18.58;50.96;93726.53;4990011;28;20452;-91
2023/05/25 00:05:28;;;;;;;12.05;7.80;;;;;;;18.55;51.01;93731.00;4990739;28;20527;-92
2023/05/25 00:07:54;;;;;;;9.77;7.15;;;;;;;18.58;51.19;93721.78;4974317;28;20072;-89
2023/05/25 00:10:20;;;;;;;9.55;7.43;;;;;;;18.55;51.14;93714.59;4973950;28;20452;-90
2023/05/25 00:12:45;;;;;;;10.43;7.07;;;;;;;18.57;51.04;93716.81;4974161;28;20053;-91
2023/05/25 00:15:11;;;;;;;8.27;6.70;;;;;;;18.56;51.20;93718.06;4973125;28;20038;-91
2023/05/25 00:17:36;;;;;;;11.52;7.55;;;;;;;18.56;51.00;93707.84;4989826;28;20046;-92
2023/05/25 00:20:08;;;;;;;11.52;7.38;;;;;;;18.55;50.99;93713.84;4990717;28;20034;-91
2023/05/25 00:22:37;;;;;;;8.32;6.95;;;;;;;18.56;51.32;93718.06;4975291;28;20422;-90
2023/05/25 00:25:03;;;;;;;9.88;6.93;;;;;;;18.57;50.92;93708.59;4990447;28;20034;-91
2023/05/25 00:27:29;;;;;;;13.10;7.50;;;;;;;18.56;51.02;93707.13;4973822;28;20056;-90
2023/05/25 00:29:55;;;;;;;8.13;6.68;;;;;;;18.54;50.87;93710.34;4988750;28;20084;-91
2023/05/25 00:32:20;;;;;;;14.70;7.40;;;;;;;18.55;50.89;93711.84;4988220;28;20042;-90
2023/05/25 00:34:46;;;;;;;11.98;7.07;;;;;;;18.55;51.19;93711.84;5010314;28;20030;-90
2023/05/25 00:37:11;;;;;;;10.30;7.00;;;;;;;18.55;50.94;93711.84;5007295;28;20049;-91
2023/05/25 00:39:36;;;;;;;10.88;5.95;;;;;;;18.54;50.87;93712.34;4977625;28;20888;-91
2023/05/25 00:42:02;;;;;;;12.02;7.47;;;;;;;18.56;50.96;93720.81;5027839;28;20485;-90
2023/05/25 00:44:28;;;;;;;8.02;6.07;;;;;;;18.56;50.80;93712.59;4992737;28;20068;-91
2023/05/25 00:46:53;;;;;;;9.40;6.47;;;;;;;18.54;51.01;93713.09;4993139;28;20318;-90
2023/05/25 00:49:20;;;;;;;9.98;6.95;;;;;;;18.55;50.64;93713.84;4992601;28;20125;-89
2023/05/25 00:51:46;;;;;;;10.68;6.38;;;;;;;18.54;50.96;93712.34;4977395;28;20397;-90
2023/05/25 00:54:14;;;;;;;9.88;6.72;;;;;;;18.52;51.15;93715.59;4993167;28;20069;-90
2023/05/25 00:56:39;;;;;;;10.00;7.10;;;;;;;18.55;50.77;93722.06;5010205;28;20029;-91
2023/05/25 00:59:05;;;;;;;9.32;6.50;;;;;;;18.53;51.02;93725.28;4976978;28;20120;-91
2023/05/25 01:01:32;;;;;;;9.98;6.90;;;;;;;18.54;50.96;93726.78;4973200;28;20065;-91
2023/05/25 01:03:58;;;;;;;9.63;6.70;;;;;;;18.52;50.80;93721.06;5004061;28;20523;-91
2023/05/25 01:06:25;;;;;;;9.45;6.03;;;;;;;18.55;50.45;93728.28;4976565;28;20037;-90
2023/05/25 01:08:53;;;;;;;10.68;7.07;;;;;;;18.53;51.22;93716.31;4980481;28;20037;-90
2023/05/25 01:11:26;;;;;;;9.90;6.65;;;;;;;18.52;50.83;93717.56;5011977;28;20108;-90
2023/05/25 01:13:53;;;;;;;8.13;6.00;;;;;;;18.53;51.04;93722.56;4985522;28;20124;-90
2023/05/25 01:16:19;;;;;;;8.25;6.28;;;;;;;18.52;50.52;93729.28;4996199;28;20038;-89
2023/05/25 01:18:46;;;;;;;9.27;6.82;;;;;;;18.52;50.70;93720.31;5012387;28;20040;-90
2023/05/25 01:21:19;;;;;;;8.07;6.20;;;;;;;18.55;50.71;93738.47;4980605;28;20037;-89
2023/05/25 01:23:52;;;;;;;6.50;5.80;;;;;;;18.54;50.88;93729.50;5030151;28;20041;-90
2023/05/25 01:26:17;;;;;;;10.55;6.82;;;;;;;18.53;50.80;93730.75;4988605;28;20049;-91
2023/05/25 01:28:45;;;;;;;10.80;6.07;;;;;;;18.53;50.62;93725.28;4980168;28;20570;-92
2023/05/25 01:31:11;;;;;;;9.60;5.65;;;;;;;18.51;50.62;93733.25;4985707;28;20052;-91
2023/05/25 01:33:36;;;;;;;10.00;6.95;;;;;;;18.52;50.62;93736.75;4984182;28;20049;-90
2023/05/25 01:36:02;;;;;;;8.18;6.25;;;;;;;18.52;50.51;93731.25;5013386;28;20037;-91
2023/05/25 01:38:27;;;;;;;8.50;6.28;;;;;;;18.54;50.71;93734.25;4995352;28;20041;-91
2023/05/25 01:40:53;;;;;;;8.05;6.20;;;;;;;18.53;50.71;93736.25;4996402;28;20121;-90
2023/05/25 01:43:18;;;;;;;9.48;6.10;;;;;;;18.52;50.64;93729.28;5008862;28;20566;-90
2023/05/25 01:45:44;;;;;;;9.32;5.97;;;;;;;18.54;50.93;93731.50;4960480;28;20079;-90
2023/05/25 01:48:21;;;;;;;9.32;5.65;;;;;;;18.53;50.84;93735.50;4977298;28;20095;-90
2023/05/25 01:50:52;;;;;;;10.10;6.40;;;;;;;18.52;50.64;93728.53;5013354;28;20066;-90
2023/05/25 01:53:19;;;;;;;7.88;6.22;;;;;;;18.53;50.63;93728.03;4991433;28;20041;-90
2023/05/25 01:55:52;;;;;;;9.52;6.35;;;;;;;18.53;50.64;93728.03;5012621;28;20041;-91
2023/05/25 01:58:18;;;;;;;8.23;6.03;;;;;;;18.53;50.41;93738.22;5007166;28;20069;-91
2023/05/25 02:00:43;;;;;;;9.10;6.03;;;;;;;18.52;50.54;93732.00;4982037;28;20870;-91
2023/05/25 02:03:08;;;;;;;9.10;6.22;;;;;;;18.52;50.52;93740.22;4981451;28;20034;-90
2023/05/25 02:05:34;;;;;;;8.13;5.88;;;;;;;18.50;50.26;93724.31;4996323;28;20103;-90
2023/05/25 02:07:59;;;;;;;10.48;5.50;;;;;;;18.50;50.60;93732.50;5011125;28;20044;-91
2023/05/25 02:10:25;;;;;;;6.63;5.88;;;;;;;18.51;50.57;93730.53;4978933;28;20048;-91
2023/05/25 02:12:50;;;;;;;8.63;5.28;;;;;;;18.50;50.33;93735.25;4995121;28;20033;-90
2023/05/25 02:15:17;;;;;;;9.95;5.90;;;;;;;18.53;50.47;93725.28;4992739;28;20044;-91
2023/05/25 02:17:43;;;;;;;8.20;6.07;;;;;;;18.51;50.52;93722.31;5009153;28;20041;-90
2023/05/25 02:20:09;;;;;;;6.65;5.32;;;;;;;18.50;50.43;93729.78;4978175;28;20073;-91
2023/05/25 02:22:36;;;;;;;7.50;5.47;;;;;;;18.50;50.38;93727.03;5011966;28;20125;-90
2023/05/25 02:25:02;;;;;;;8.10;5.38;;;;;;;18.50;50.11;93720.81;4996173;28;20045;-89
2023/05/25 02:27:27;;;;;;;7.40;5.70;;;;;;;18.48;50.54;93729.53;4994284;28;20044;-90
2023/05/25 02:29:53;;;;;;;7.47;5.55;;;;;;;18.50;50.49;93731.75;4978070;28;20045;-90
2023/05/25 02:32:18;;;;;;;7.97;5.60;;;;;;;18.49;50.37;93733.00;4978611;28;20046;-91
2023/05/25 02:34:43;;;;;;;7.47;5.45;;;;;;;18.50;50.42;93740.72;4979159;28;20042;-90
2023/05/25 02:37:09;;;;;;;7.57;5.45;;;;;;;18.50;50.65;93746.19;4978912;28;20046;-92
2023/05/25 02:39:34;;;;;;;7.45;5.18;;;;;;;18.49;50.40;93736.50;5004068;28;20042;-91
2023/05/25 02:42:00;;;;;;;9.82;5.45;;;;;;;18.48;50.18;93742.47;5008092;28;20026;-92
2023/05/25 02:44:25;;;;;;;10.10;5.95;;;;;;;18.48;50.85;93735.00;4993219;28;20087;-90
2023/05/25 02:46:51;;;;;;;8.57;5.78;;;;;;;18.49;50.74;93741.22;4979107;28;20045;-92
2023/05/25 02:49:16;;;;;;;7.85;5.72;;;;;;;18.48;50.58;93748.69;4978016;28;20037;-90
2023/05/25 02:51:41;;;;;;;7.75;5.18;;;;;;;18.47;50.77;93736.25;5011037;28;20029;-89
2023/05/25 02:54:07;;;;;;;7.55;5.18;;;;;;;18.48;50.80;93742.47;5010419;28;20049;-91
2023/05/25 02:56:32;;;;;;;8.52;6.13;;;;;;;18.47;50.74;93749.19;4994753;28;20049;-91
2023/05/25 02:58:58;;;;;;;8.40;5.30;;;;;;;18.48;50.44;93745.22;4978002;28;20041;-90
2023/05/25 03:01:24;;;;;;;8.38;5.75;;;;;;;18.48;50.99;93750.69;4977791;28;20111;-92
2023/05/25 03:03:52;;;;;;;9.45;5.78;;;;;;;18.48;50.96;93745.97;4994443;28;20492;-91
2023/05/25 03:06:18;;;;;;;7.80;5.78;;;;;;;18.47;50.61;93754.66;5009197;28;20033;-91
2023/05/25 03:08:43;;;;;;;9.15;5.32;;;;;;;18.47;50.57;93746.47;5002850;28;20108;-91
2023/05/25 03:11:09;;;;;;;8.43;5.93;;;;;;;18.47;50.79;93747.19;4978179;28;20049;-91
2023/05/25 03:13:34;;;;;;;7.90;5.78;;;;;;;18.46;50.87;93751.19;4993992;28;20038;-91
2023/05/25 03:16:01;;;;;;;6.35;5.50;;;;;;;18.47;50.79;93752.69;4983818;28;20120;-92
2023/05/25 03:18:26;;;;;;;8.60;6.10;;;;;;;18.46;50.67;93751.19;4977641;28;20034;-91
2023/05/25 03:20:52;;;;;;;9.00;5.63;;;;;;;18.47;50.67;93746.47;4977898;28;20115;-90
2023/05/25 03:23:17;;;;;;;7.95;5.50;;;;;;;18.46;50.52;93751.19;4975521;28;20468;-92
2023/05/25 03:25:43;;;;;;;6.18;4.70;;;;;;;18.48;50.39;93761.63;4977672;28;20049;-91
2023/05/25 03:28:08;;;;;;;7.18;4.95;;;;;;;18.47;50.78;93749.19;5024763;28;20037;-91
2023/05/25 03:30:33;;;;;;;9.00;5.55;;;;;;;18.45;50.74;93757.91;4981500;28;20049;-90
2023/05/25 03:32:59;;;;;;;12.07;6.15;;;;;;;18.47;50.70;93757.41;4985141;28;20096;-92
2023/05/25 03:35:24;;;;;;;13.05;7.32;;;;;;;18.52;50.90;93747.69;4978212;28;20043;-88
2023/05/25 03:37:50;;;;;;;11.32;7.30;;;;;;;18.50;50.72;93750.94;4993617;28;20029;-88
2023/05/25 03:40:15;;;;;;;18.80;14.18;;;;;;;18.60;50.76;93757.66;5013367;28;20045;-88
2023/05/25 03:42:41;;;;;;;11.60;7.97;;;;;;;18.57;50.43;93761.38;4989688;28;20038;-87
2023/05/25 03:45:08;;;;;;;8.45;6.15;;;;;;;18.59;50.77;93763.59;4974208;28;20105;-89
2023/05/25 03:47:34;;;;;;;9.88;6.47;;;;;;;18.61;51.21;93764.63;4975849;28;20148;-91
2023/05/25 03:50:00;;;;;;;61.17;21.17;;;;;;;18.58;51.07;93776.56;4977070;28;20045;-91
2023/05/25 03:52:26;;;;;;;86.82;42.90;;;;;;;18.65;50.83;93762.34;4984824;28;20037;-90
2023/05/25 03:54:51;;;;;;;63.05;21.05;;;;;;;18.67;50.16;93772.78;5026549;28;20041;-91
2023/05/25 03:57:17;;;;;;;38.47;13.50;;;;;;;18.52;48.75;93769.59;4992658;28;20049;-90
2023/05/25 03:59:42;;;;;;;157.80;34.03;;;;;;;18.45;48.39;93779.81;4976867;28;20041;-90
2023/05/25 04:02:08;;;;;;;106.55;25.40;;;;;;;18.39;47.61;93776.38;4965260;28;20046;-91
2023/05/25 04:04:33;;;;;;;105.90;27.27;;;;;;;18.42;47.15;93771.84;4977700;28;20100;-90
2023/05/25 04:06:59;;;;;;;118.60;31.25;;;;;;;18.37;46.54;93770.63;4981863;28;20038;-88
2023/05/25 04:09:25;;;;;;;289.00;65.70;;;;;;;18.32;46.22;93763.19;4991404;28;20041;-88
2023/05/25 04:11:51;;;;;;;227.75;60.22;;;;;;;18.31;45.95;93766.41;4999799;28;20045;-88
2023/05/25 04:14:19;;;;;;;260.85;82.47;;;;;;;18.31;46.35;93774.63;4967682;28;20038;-89
2023/05/25 04:16:45;;;;;;;221.10;79.82;;;;;;;18.29;45.65;93772.38;5004797;28;20041;-89
2023/05/25 04:19:10;;;;;;;172.18;70.65;;;;;;;18.27;45.45;93779.59;5008553;28;20102;-88
2023/05/25 04:21:36;;;;;;;206.82;76.70;;;;;;;18.23;45.37;93776.38;4973691;28;20038;-88
2023/05/25 04:24:01;;;;;;;168.80;67.60;;;;;;;18.20;45.26;93785.59;4983980;28;20092;-87
2023/05/25 04:26:27;;;;;;;212.18;69.10;;;;;;;18.13;45.21;93776.66;4983707;28;20403;-88
2023/05/25 04:28:53;;;;;;;176.18;55.05;;;;;;;18.24;44.83;93766.91;5000071;28;20030;-87
2023/05/25 04:31:19;;;;;;;175.63;62.42;;;;;;;18.15;44.83;93782.38;4988218;28;20091;-87
2023/05/25 04:33:45;;;;;;;125.82;54.42;;;;;;;18.16;45.11;93780.38;5002047;28;20057;-89
2023/05/25 04:36:10;;;;;;;109.20;41.10;;;;;;;18.10;45.03;93785.13;4989634;28;20105;-89
2023/05/25 04:38:36;;;;;;;138.38;45.35;;;;;;;18.06;44.98;93793.56;5030309;28;20033;-89
2023/05/25 04:41:01;;;;;;;152.80;50.50;;;;;;;18.12;44.65;93793.56;5029456;28;20052;-90
2023/05/25 04:43:34;;;;;;;172.00;51.45;;;;;;;18.13;44.86;93784.88;4984402;28;20487;-89
2023/05/25 04:45:59;;;;;;;134.65;42.75;;;;;;;18.05;44.60;93791.34;5029242;28;20034;-89
2023/05/25 04:48:27;;;;;;;131.68;40.08;;;;;;;18.04;44.37;93796.06;5010866;28;20045;-90
2023/05/25 04:50:54;;;;;;;113.57;45.20;;;;;;;17.95;44.91;93788.13;5003193;28;20049;-93
2023/05/25 04:53:21;;;;;;;135.55;41.70;;;;;;;17.94;44.69;93772.94;5029245;28;20531;-90
2023/05/25 04:55:48;;;;;;;100.55;32.92;;;;;;;17.93;44.41;93778.91;4998822;28;20072;-95
2023/05/25 04:58:14;;;;;;;114.82;29.00;;;;;;;17.91;44.36;93771.22;4985213;28;20033;-90
2023/05/25 05:00:40;;;;;;;74.28;27.83;;;;;;;17.91;43.99;93792.34;5001141;28;20136;-91
2023/05/25 05:03:07;;;;;;;81.50;26.35;;;;;;;17.93;44.11;93784.41;4998595;28;21154;-92
2023/05/25 05:05:34;;;;;;;62.33;28.65;;;;;;;17.81;44.21;93789.84;4995098;28;20057;-94
2023/05/25 05:08:02;;;;;;;79.50;31.75;;;;;;;17.94;43.81;93783.16;4995570;28;20065;-88
2023/05/25 05:10:27;;;;;;;48.08;20.77;;;;;;;17.83;43.89;93783.16;4992283;28;20071;-90
2023/05/25 05:12:53;;;;;;;52.38;22.02;;;;;;;17.86;44.24;93782.91;4995787;28;20057;-91
2023/05/25 05:15:19;;;;;;;56.30;23.77;;;;;;;17.85;44.07;93778.66;4996529;28;20053;-92
2023/05/25 05:17:45;;;;;;;58.63;19.58;;;;;;;17.88;43.85;93785.88;4979017;28;20088;-88
2023/05/25 05:20:11;;;;;;;49.35;19.02;;;;;;;17.83;43.96;93780.41;4995900;28;20037;-89
2023/05/25 05:22:37;;;;;;;59.40;19.77;;;;;;;17.80;44.09;93784.88;4995834;28;20049;-88
2023/05/25 05:25:03;;;;;;;53.67;21.42;;;;;;;17.79;44.25;93775.94;4996748;28;20034;-89
2023/05/25 05:27:28;;;;;;;59.00;29.85;;;;;;;17.87;44.39;93778.16;5012597;28;20044;-89
2023/05/25 05:29:54;;;;;;;59.15;28.65;;;;;;;17.86;44.07;93765.75;4995953;28;20033;-88
2023/05/25 05:32:19;;;;;;;87.22;45.15;;;;;;;17.87;43.97;93776.19;5020970;28;20456;-88
2023/05/25 05:34:45;;;;;;;126.50;68.97;;;;;;;17.89;43.90;93797.56;5005639;28;20084;-89
2023/05/25 05:37:10;;;;;;;153.68;94.22;;;;;;;17.89;43.53;93781.16;4989783;28;20046;-88
2023/05/25 05:39:36;;;;;;;139.90;76.10;;;;;;;17.94;43.99;93792.09;5007942;28;20761;-89
2023/05/25 05:42:01;;;;;;;178.90;73.75;;;;;;;17.98;43.94;93795.31;4992124;28;20049;-87
2023/05/25 05:44:27;;;;;;;292.52;141.50;;;;;;;17.96;43.42;93797.81;4985864;28;20037;-88
2023/05/25 05:46:58;;;;;;;275.35;135.18;;;;;;;17.95;43.89;93801.06;5028465;28;20061;-88
2023/05/25 05:49:24;;;;;;;;;;;;;;;17.96;43.69;93797.81;4996733;28;20424;-88
2023/05/25 05:51:50;;;;;;;156.80;77.95;;;;;;;18.02;43.53;93795.81;5008951;28;20188;-88
2023/05/25 05:54:15;;;;;;;171.85;80.22;;;;;;;17.94;43.79;93807.75;4997017;28;20500;-88
2023/05/25 05:56:42;;;;;;;161.82;71.32;;;;;;;17.94;43.58;93803.03;5010325;28;20037;-88
2023/05/25 05:59:07;;;;;;;116.03;54.10;;;;;;;17.97;43.86;93807.50;4987997;28;20048;-87
2023/05/25 06:01:35;;;;;;;93.30;47.42;;;;;;;17.84;44.15;93818.19;5008255;28;20448;-90
2023/05/25 06:04:00;;;;;;;102.18;43.15;;;;;;;17.93;43.82;93815.22;4990123;28;20045;-90
2023/05/25 06:06:26;;;;;;;76.63;34.33;;;;;;;17.93;43.68;93807.03;4998543;28;20467;-89
2023/05/25 06:08:52;;;;;;;79.18;30.83;;;;;;;17.93;44.28;93809.75;4995620;28;20029;-89
2023/05/25 06:11:17;;;;;;;46.45;24.75;;;;;;;17.99;44.00;93813.22;4994419;28;20045;-88
2023/05/25 06:13:42;;;;;;;57.80;25.20;;;;;;;18.06;43.90;93801.03;5011672;28;20060;-88
2023/05/25 06:16:08;;;;;;;48.40;22.27;;;;;;;18.08;44.13;93809.50;4993085;28;20370;-87
2023/05/25 06:18:33;;;;;;;40.78;19.63;;;;;;;18.07;44.21;93794.31;5002925;28;20092;-86
2023/05/25 06:21:00;;;;;;;41.15;18.38;;;;;;;18.09;44.52;93786.34;5011059;28;20108;-88
2023/05/25 06:23:26;;;;;;;35.38;17.52;;;;;;;18.15;44.15;93795.31;4994568;28;20045;-88
2023/05/25 06:25:52;;;;;;;36.50;17.40;;;;;;;18.14;43.89;93796.56;5010871;28;20404;-87
2023/05/25 06:28:17;;;;;;;30.30;16.13;;;;;;;18.10;44.65;93798.78;5010737;28;20052;-87
2023/05/25 06:30:43;;;;;;;25.00;15.30;;;;;;;18.07;43.95;93795.06;4990865;28;20038;-87
2023/05/25 06:33:08;;;;;;;37.92;15.43;;;;;;;18.05;44.32;93802.28;5006868;28;20865;-88
2023/05/25 06:35:34;;;;;;;43.78;15.98;;;;;;;18.06;44.47;93798.28;5007604;28;20115;-88
2023/05/25 06:38:00;;;;;;;42.15;14.70;;;;;;;18.03;44.69;93808.25;5007513;28;20057;-87
2023/05/25 06:40:26;;;;;;;33.33;17.00;;;;;;;18.04;44.78;93801.53;5004389;28;20511;-88
2023/05/25 06:42:51;;;;;;;61.72;32.22;;;;;;;18.02;44.80;93806.00;4991135;28;20030;-88
2023/05/25 06:45:17;;;;;;;84.85;40.33;;;;;;;18.02;44.67;93806.00;4991128;28;20042;-85
2023/05/25 06:47:42;;;;;;;80.68;33.88;;;;;;;18.00;44.85;93814.72;5006921;28;20088;-87
2023/05/25 06:50:08;;;;;;;49.60;23.00;;;;;;;18.10;44.82;93807.00;4999950;28;20058;-86
2023/05/25 06:52:34;;;;;;;55.53;26.75;;;;;;;18.09;45.16;93808.25;5007526;28;20038;-86
2023/05/25 06:55:02;;;;;;;85.65;29.25;;;;;;;18.09;45.12;93802.78;5004903;28;20064;-88
2023/05/25 06:57:28;;;;;;;74.05;26.90;;;;;;;18.13;45.37;93806.00;5009666;28;20065;-88
2023/05/25 06:59:53;;;;;;;65.22;26.10;;;;;;;18.10;45.31;93804.25;4977046;28;20048;-87
2023/05/25 07:02:19;;;;;;;78.50;34.03;;;;;;;18.18;45.24;93818.19;4991666;28;20151;-87
2023/05/25 07:04:45;;;;;;;58.85;27.58;;;;;;;18.15;45.52;93819.94;4987953;28;20045;-88
2023/05/25 07:07:12;;;;;;;72.13;24.45;;;;;;;18.12;45.35;93816.22;4985692;28;20420;-87
2023/05/25 07:09:38;;;;;;;41.25;21.00;;;;;;;18.13;45.15;93819.69;4992240;28;20138;-88
2023/05/25 07:12:07;;;;;;;53.63;24.58;;;;;;;18.21;45.57;93823.38;5010097;28;20120;-87
2023/05/25 07:14:36;;;;;;;121.97;53.88;;;;;;;18.17;45.34;93820.19;5007681;28;20030;-89
2023/05/25 07:17:02;;;;;;;182.00;90.72;;;;;;;18.16;45.45;93826.91;5008495;28;20057;-88
2023/05/25 07:19:27;;;;;;;214.82;104.28;;;;;;;18.17;45.79;93825.66;4992158;28;20077;-89
2023/05/25 07:21:52;;;;;;;170.50;81.00;;;;;;;18.19;45.37;93823.16;4990750;28;20072;-89
2023/05/25 07:24:18;;;;;;;219.20;119.05;;;;;;;18.21;45.75;93822.66;4974091;28;20132;-90
2023/05/25 07:26:44;;;;;;;211.75;97.28;;;;;;;18.17;45.93;93822.94;4991224;28;20034;-89
2023/05/25 07:29:11;;;;;;;202.30;92.18;;;;;;;18.16;46.07;93821.44;4990546;28;20037;-91
2023/05/25 07:31:36;;;;;;;165.80;72.18;;;;;;;18.28;46.39;93838.56;4975837;28;20041;-88
2023/05/25 07:34:02;;;;;;;153.77;63.30;;;;;;;18.20;46.46;93832.84;4997498;28;20561;-88
2023/05/25 07:36:27;;;;;;;164.02;68.75;;;;;;;18.27;46.14;93840.56;4989464;28;20069;-89
2023/05/25 07:38:53;;;;;;;162.82;73.18;;;;;;;18.26;46.26;93839.06;5007461;28;20053;-90
2023/05/25 07:41:18;;;;;;;170.15;74.32;;;;;;;18.26;46.21;93847.28;4989390;28;20045;-89
2023/05/25 07:43:44;;;;;;;140.85;64.72;;;;;;;18.30;45.85;93841.56;4991520;28;20121;-89
2023/05/25 07:46:10;;;;;;;130.32;62.97;;;;;;;18.25;46.05;93837.56;4987611;28;20136;-89
2023/05/25 07:48:36;;;;;;;162.55;68.15;;;;;;;18.31;45.96;93837.56;4993113;28;20088;-90
2023/05/25 07:51:01;;;;;;;144.60;66.18;;;;;;;18.26;46.07;93841.06;4992826;28;20037;-89
2023/05/25 07:53:27;;;;;;;151.38;67.90;;;;;;;18.27;46.43;93846.03;4991565;28;20083;-89
2023/05/25 07:55:52;;;;;;;145.38;60.70;;;;;;;18.31;46.25;93846.53;4985025;28;20072;-90
2023/05/25 07:58:18;;;;;;;171.32;55.67;;;;;;;18.37;46.33;93852.00;5002981;28;20092;-90
2023/05/25 08:00:43;;;;;;;140.15;51.35;;;;;;;18.29;45.96;93848.28;4977778;28;20061;-91
2023/05/25 08:03:09;;;;;;;120.53;43.45;;;;;;;18.34;45.64;93848.28;4993181;28;20033;-91
2023/05/25 08:05:35;;;;;;;113.45;41.47;;;;;;;18.25;46.04;93851.25;4978301;28;20041;-88
2023/05/25 08:08:00;;;;;;;106.10;42.30;;;;;;;18.32;46.03;93852.75;4977288;28;20800;-89
2023/05/25 08:10:30;;;;;;;101.25;43.35;;;;;;;18.26;46.17;93847.28;4973882;28;20048;-89
2023/05/25 08:12:56;;;;;;;98.45;40.30;;;;;;;18.32;45.83;93850.75;4990245;28;20126;-89
2023/05/25 08:15:21;;;;;;;94.30;43.28;;;;;;;18.38;45.63;93853.50;5018588;28;20054;-90
2023/05/25 08:17:49;;;;;;;99.00;34.25;;;;;;;18.39;45.58;93853.00;4993316;28;20038;-89
2023/05/25 08:20:15;;;;;;;88.22;34.78;;;;;;;18.36;45.58;93854.00;4993605;28;20045;-89
2023/05/25 08:22:41;;;;;;;101.38;38.55;;;;;;;18.36;46.06;93858.72;4998503;28;20030;-91
2023/05/25 08:25:07;;;;;;;95.10;41.33;;;;;;;18.34;45.92;93851.00;4980457;28;20141;-90
2023/05/25 08:27:32;;;;;;;87.53;44.60;;;;;;;18.38;46.08;93854.25;4980979;28;20460;-92
2023/05/25 08:29:58;;;;;;;104.47;45.95;;;;;;;18.41;46.00;93852.47;4979185;28;20045;-91
2023/05/25 08:32:23;;;;;;;100.88;47.95;;;;;;;18.37;46.34;93852.75;5005171;28;20038;-87
2023/05/25 08:34:48;;;;;;;136.35;63.38;;;;;;;18.40;46.21;93861.97;4985341;28;20042;-89
2023/05/25 08:37:15;;;;;;;172.85;90.55;;;;;;;18.37;46.45;93862.97;5000973;28;20463;-92
2023/05/25 08:39:40;;;;;;;176.10;87.97;;;;;;;18.38;46.40;93862.47;5016194;28;20065;-89
2023/05/25 08:42:06;;;;;;;148.20;74.97;;;;;;;18.42;46.33;93862.94;5013918;28;20064;-90
2023/05/25 08:44:32;;;;;;;128.18;69.07;;;;;;;18.40;46.21;93859.94;4998159;28;20033;-89
2023/05/25 08:46:57;;;;;;;158.95;74.38;;;;;;;18.38;46.16;93870.66;5001134;28;20041;-90
2023/05/25 08:49:25;;;;;;;159.05;67.85;;;;;;;18.41;47.01;93864.16;4999257;28;20049;-92
2023/05/25 08:51:51;;;;;;;165.13;63.28;;;;;;;18.40;46.71;93876.38;4983240;28;20141;-90
2023/05/25 08:54:18;;;;;;;182.27;61.05;;;;;;;18.41;46.99;93872.38;5012696;28;20128;-88
2023/05/25 08:56:48;;;;;;;159.48;58.22;;;;;;;18.44;47.13;93867.91;5013990;28;20041;-88
2023/05/25 08:59:23;;;;;;;143.53;50.77;;;;;;;18.48;47.24;93874.63;4989844;28;20128;-88
2023/05/25 09:01:52;;;;;;;140.85;53.88;;;;;;;18.44;47.38;93862.44;5014871;28;20594;-90
2023/05/25 09:04:18;;;;;;;187.63;64.88;;;;;;;18.49;47.44;93872.63;5001154;28;20311;-91
2023/05/25 09:06:44;;;;;;;186.88;65.85;;;;;;;18.50;47.27;93868.66;4985082;28;20042;-90
2023/05/25 09:09:11;;;;;;;165.25;60.80;;;;;;;18.52;46.96;93871.63;4988313;28;20037;-90
2023/05/25 09:11:36;;;;;;;136.65;53.15;;;;;;;18.49;46.99;93870.63;5006407;28;20037;-91
2023/05/25 09:14:02;;;;;;;127.78;52.38;;;;;;;18.50;47.08;93872.13;4984588;28;20037;-91
2023/05/25 09:16:27;;;;;;;121.03;54.03;;;;;;;18.51;46.96;93872.88;4977776;28;20067;-91
2023/05/25 09:18:52;;;;;;;114.93;49.60;;;;;;;18.52;46.88;93876.38;5016836;28;20033;-89
2023/05/25 09:21:18;;;;;;;124.15;47.28;;;;;;;18.54;47.07;93874.63;4998647;28;20415;-90
2023/05/25 09:23:44;;;;;;;213.52;60.25;;;;;;;18.52;47.21;93876.38;4997586;28;20084;-90
2023/05/25 09:26:09;;;;;;;157.43;49.08;;;;;;;18.50;47.17;93882.34;4981107;28;20053;-91
2023/05/25 09:28:43;;;;;;;130.88;46.05;;;;;;;18.60;47.31;93874.66;4981327;28;20544;-90
2023/05/25 09:31:09;;;;;;;122.28;43.45;;;;;;;18.53;47.56;93875.88;4996290;28;20049;-90
2023/05/25 09:33:35;;;;;;;115.57;46.22;;;;;;;18.53;47.07;93884.06;5009642;28;20048;-89
2023/05/25 09:36:00;;;;;;;82.63;32.78;;;;;;;18.55;47.97;93886.31;4982984;28;20522;-91
2023/05/25 09:38:25;;;;;;;67.20;31.77;;;;;;;18.54;47.81;93873.88;4992376;28;20124;-89
2023/05/25 09:40:51;;;;;;;87.95;37.92;;;;;;;18.56;47.92;93880.34;5011431;28;20038;-90
2023/05/25 09:43:16;;;;;;;108.45;52.00;;;;;;;18.49;48.22;93870.63;5011105;28;20045;-90
2023/05/25 09:45:42;;;;;;;130.00;62.63;;;;;;;18.57;47.93;93872.88;4994716;28;20512;-91
2023/05/25 09:48:07;;;;;;;135.75;66.68;;;;;;;18.58;47.96;93868.91;4999547;28;20450;-92
2023/05/25 09:50:37;;;;;;;149.48;81.47;;;;;;;18.55;48.19;93867.16;5012679;28;20081;-91
2023/05/25 09:53:02;;;;;;;176.68;100.80;;;;;;;18.55;48.18;93867.91;4984207;28;20047;-90
2023/05/25 09:55:28;;;;;;;161.15;83.82;;;;;;;18.54;48.07;93865.66;4980475;28;20041;-91
2023/05/25 09:57:54;;;;;;;164.52;86.32;;;;;;;18.53;48.00;93869.66;5016438;28;20041;-92
2023/05/25 10:00:23;;;;;;;177.77;85.20;;;;;;;18.57;48.48;93878.34;4987693;28;20233;-91
2023/05/25 10:02:49;;;;;;;174.05;87.63;;;;;;;18.57;48.39;93864.66;4996816;28;20033;-91
2023/05/25 10:05:15;;;;;;;134.77;73.57;;;;;;;18.60;48.58;93882.88;4994813;28;20504;-93
2023/05/25 10:07:41;;;;;;;151.40;77.97;;;;;;;18.58;48.48;93871.63;4994536;28;20136;-90
2023/05/25 10:10:07;;;;;;;130.23;71.03;;;;;;;18.60;48.74;93872.66;4979468;28;20044;-90
2023/05/25 10:12:32;;;;;;;123.35;65.10;;;;;;;18.59;48.79;93878.59;4980653;28;20152;-90
2023/05/25 10:14:58;;;;;;;100.38;54.45;;;;;;;18.60;48.40;93869.91;4995761;28;20049;-90
2023/05/25 10:17:23;;;;;;;79.85;45.35;;;;;;;18.56;48.31;93880.34;4982637;28;20107;-90
2023/05/25 10:19:53;;;;;;;84.65;46.70;;;;;;;18.57;48.43;93867.41;4979188;28;20043;-90
2023/05/25 10:22:22;;;;;;;78.93;42.45;;;;;;;18.57;48.39;93881.09;4979004;28;20056;-90
2023/05/25 10:24:48;;;;;;;76.60;42.08;;;;;;;18.58;48.62;93866.16;4996396;28;20034;-89
2023/05/25 10:27:17;;;;;;;73.72;41.35;;;;;;;18.57;48.63;93884.56;5027296;28;20060;-91
2023/05/25 10:29:43;;;;;;;62.85;37.10;;;;;;;18.59;48.57;93873.13;4969100;28;20452;-91
2023/05/25 10:32:08;;;;;;;61.55;35.80;;;;;;;18.64;48.58;93866.91;4997616;28;20111;-90
2023/05/25 10:34:33;;;;;;;77.10;36.58;;;;;;;18.61;48.69;93865.19;4987305;28;20460;-90
2023/05/25 10:36:59;;;;;;;51.53;31.75;;;;;;;18.59;48.97;93873.13;4978732;28;20121;-90
2023/05/25 10:39:25;;;;;;;53.08;30.85;;;;;;;18.59;48.83;93862.16;4977926;28;20033;-92
2023/05/25 10:41:51;;;;;;;53.90;29.75;;;;;;;18.61;48.75;93862.44;4977583;28;20026;-90
2023/05/25 10:44:17;;;;;;;53.00;30.77;;;;;;;18.62;48.64;93870.13;4978270;28;20041;-91
2023/05/25 10:46:42;;;;;;;48.40;30.08;;;;;;;18.68;49.14;93870.13;4982347;28;20037;-91
2023/05/25 10:49:07;;;;;;;83.18;45.60;;;;;;;18.62;49.11;93869.41;4985721;28;20045;-92
2023/05/25 10:51:39;;;;;;;73.13;39.17;;;;;;;18.62;49.27;93866.69;4977121;28;20038;-91
2023/05/25 10:54:05;;;;;;;71.95;38.10;;;;;;;18.68;48.81;93870.88;4986180;28;20091;-92
2023/05/25 10:56:30;;;;;;;56.95;30.45;;;;;;;18.62;49.21;93866.69;4995731;28;20153;-91
2023/05/25 10:58:56;;;;;;;49.53;29.38;;;;;;;18.65;49.15;93871.13;4985350;28;20099;-92
2023/05/25 11:01:21;;;;;;;57.35;31.35;;;;;;;18.63;49.03;93877.09;4998310;28;20392;-91
2023/05/25 11:03:55;;;;;;;75.53;31.05;;;;;;;18.66;49.11;93865.16;4994879;28;20041;-92
2023/05/25 11:06:39;;;;;;;86.00;37.35;;;;;;;18.67;49.22;93866.66;4995501;28;20049;-92
2023/05/25 11:09:05;;;;;;;101.80;42.42;;;;;;;18.67;49.48;93860.44;5029821;28;20040;-90
2023/05/25 11:11:46;;;;;;;98.47;41.65;;;;;;;18.68;49.23;93870.88;4979330;28;20068;-90
2023/05/25 11:14:29;;;;;;;90.65;42.90;;;;;;;18.69;49.29;93866.91;5032034;28;20045;-90